Waco, Texas
Current Conditions -  °F | °C
As of 3:51 AM on Saturday 22 Nov 2014 (Local Time) from KACT Reporting Station
Overcast Overcast  
Wind Chill: 64°   Ceiling: 800
Heat Index: 64°   Visibility: 8mi
Dew Point: 61°   Wind: 17mph
Humidity: 90%   Direction: 150°SSE
Pressure: 30.04"   Gusts: NA
Location:  31.57°N, 97.15°W
Report Text: KACT 220951Z 15015KT 8SM OVC008 18/16 A3004 RMK AO2 CIG 007V012 SLP167 T01780161
Loading
Personal Weather Stations






























Interactive Weather Map New forecast layout! Learn more

10-Day Weather Forecast

Advertisements
Track Severe Weather on mobile